Time;durP1;ratioP1;P1;durP2;ratioP2;P2;SDS_P1;SDS_P2;PMS_P1;PMS_P2;Temp;Humidity;BMP_temperature;BMP_pressure;BME280_temperature;BME280_humidity;BME280_pressure;Samples;Min_cycle;Max_cycle;Signal;HPM_P1;HPM_P2
2023/01/18 00:00:47;;;;;;;14.63;4.68;;;-0.50;99.90;;;;;;5049947;28;20082;-65
2023/01/18 00:03:13;;;;;;;9.55;4.30;;;-0.60;99.90;;;;;;5048996;28;20135;-65
2023/01/18 00:05:42;;;;;;;10.65;4.28;;;-0.60;99.90;;;;;;5050218;28;20056;-70
2023/01/18 00:08:13;;;;;;;11.25;4.90;;;-0.70;99.90;;;;;;5047757;28;20078;-68
2023/01/18 00:10:39;;;;;;;10.30;4.60;;;-0.70;99.90;;;;;;5046778;28;20059;-65
2023/01/18 00:13:05;;;;;;;11.00;4.53;;;-0.80;99.90;;;;;;5053917;28;20059;-67
2023/01/18 00:15:34;;;;;;;12.55;4.80;;;-0.80;99.90;;;;;;5067882;28;20267;-67
2023/01/18 00:18:01;;;;;;;10.10;4.93;;;-0.80;99.90;;;;;;5063390;28;20562;-63
2023/01/18 00:20:28;;;;;;;8.80;4.70;;;-0.80;99.90;;;;;;5063474;28;20710;-65
2023/01/18 00:22:54;;;;;;;10.98;5.25;;;-0.90;99.90;;;;;;5065961;28;20047;-63
2023/01/18 00:25:23;;;;;;;9.65;4.93;;;-0.90;99.90;;;;;;5059351;28;20043;-65
2023/01/18 00:27:54;;;;;;;9.23;4.45;;;-0.90;99.90;;;;;;5066978;28;20048;-65
2023/01/18 00:30:23;;;;;;;13.32;5.43;;;-0.90;99.90;;;;;;5067865;28;20055;-65
2023/01/18 00:32:52;;;;;;;12.88;5.45;;;-0.90;99.90;;;;;;5067010;28;20609;-64
2023/01/18 00:35:21;;;;;;;12.00;5.20;;;-0.90;99.90;;;;;;5063873;28;20041;-65
2023/01/18 00:37:51;;;;;;;12.85;5.70;;;-0.90;99.90;;;;;;5065507;28;20036;-65
2023/01/18 00:40:21;;;;;;;12.75;5.45;;;-0.90;99.90;;;;;;5047342;28;20111;-67
2023/01/18 00:45:36;;;;;;;11.02;4.63;;;-0.90;99.90;;;;;;5047480;28;20432;-65
2023/01/18 00:48:02;;;;;;;11.68;5.15;;;-0.90;99.90;;;;;;5065617;28;20048;-64
2023/01/18 00:50:27;;;;;;;11.18;4.90;;;-0.90;99.90;;;;;;5046788;28;20483;-68
2023/01/18 00:52:57;;;;;;;11.60;5.43;;;-0.90;99.90;;;;;;5046652;28;20048;-69
2023/01/18 00:55:23;;;;;;;15.57;5.13;;;-0.90;99.90;;;;;;5054081;28;20044;-64
2023/01/18 00:57:49;;;;;;;9.73;4.97;;;-0.90;99.90;;;;;;5047119;28;20040;-67
2023/01/18 01:00:15;;;;;;;13.98;5.45;;;-0.90;99.90;;;;;;5047310;28;20040;-65
2023/01/18 01:02:44;;;;;;;15.18;5.38;;;-0.90;99.90;;;;;;5059475;28;20571;-65
2023/01/18 01:08:16;;;;;;;14.05;5.72;;;-1.00;99.90;;;;;;5084925;28;20653;-65
2023/01/18 01:10:45;;;;;;;13.48;5.80;;;-1.00;99.90;;;;;;5071755;28;20036;-64
2023/01/18 01:27:09;;;;;;;14.82;6.22;;;-1.20;99.90;;;;;;5046964;28;20253;-65
2023/01/18 01:29:35;;;;;;;13.65;7.05;;;-1.30;99.90;;;;;;5031526;28;20690;-62
2023/01/18 01:32:02;;;;;;;11.02;6.25;;;-1.30;99.90;;;;;;5047394;28;20044;-65
2023/01/18 01:34:30;;;;;;;15.25;7.35;;;-1.30;99.90;;;;;;5047875;28;20086;-65
2023/01/18 01:36:59;;;;;;;13.38;6.45;;;-1.30;99.90;;;;;;5046684;28;20044;-65
2023/01/18 01:39:25;;;;;;;16.20;6.45;;;-1.30;99.90;;;;;;5076402;28;20047;-64
2023/01/18 01:41:50;;;;;;;13.90;6.90;;;-1.20;99.90;;;;;;5067071;28;20066;-65
2023/01/18 01:44:19;;;;;;;14.15;7.20;;;-1.20;99.90;;;;;;5067583;28;20036;-69
2023/01/18 01:47:13;;;;;;;14.13;7.30;;;-1.20;99.90;;;;;;5067028;28;20066;-64
2023/01/18 01:49:46;;;;;;;18.98;8.00;;;-1.20;99.90;;;;;;5069237;28;20125;-67
2023/01/18 01:52:32;;;;;;;16.67;7.70;;;-1.20;99.90;;;;;;5047162;28;20044;-65
2023/01/18 01:55:33;;;;;;;12.18;7.07;;;-1.20;99.90;;;;;;5054858;28;20417;-65
2023/01/18 01:58:05;;;;;;;14.10;6.57;;;-1.20;99.90;;;;;;5031657;28;20044;-66
2023/01/18 02:00:32;;;;;;;16.38;7.65;;;-1.20;99.90;;;;;;5067081;28;20047;-65
2023/01/18 02:03:03;;;;;;;16.83;7.15;;;-1.30;99.90;;;;;;5081024;28;20060;-65
2023/01/18 02:05:32;;;;;;;15.50;7.97;;;-1.20;99.90;;;;;;5029559;28;20135;-66
2023/01/18 02:08:00;;;;;;;14.30;7.32;;;-1.20;99.90;;;;;;5029843;28;20067;-65
2023/01/18 02:10:27;;;;;;;15.52;7.13;;;-1.20;99.90;;;;;;5054067;28;20047;-66
2023/01/18 02:12:53;;;;;;;15.80;8.40;;;-1.10;99.90;;;;;;5046496;28;20090;-65
2023/01/18 02:15:46;;;;;;;18.15;8.07;;;-1.10;99.90;;;;;;5046524;28;20376;-65
2023/01/18 02:18:24;;;;;;;16.02;7.65;;;-1.20;99.90;;;;;;5033023;28;20062;-64
2023/01/18 02:21:01;;;;;;;13.35;7.63;;;-1.20;99.90;;;;;;5045906;28;20577;-66
2023/01/18 02:23:32;;;;;;;13.27;6.72;;;-1.20;99.90;;;;;;5049592;28;20570;-66
2023/01/18 02:26:03;;;;;;;14.65;7.72;;;-1.20;99.90;;;;;;5049715;28;20609;-67
2023/01/18 02:28:36;;;;;;;24.35;8.15;;;-1.20;99.90;;;;;;5046270;28;20044;-65
2023/01/18 02:31:21;;;;;;;14.27;8.40;;;-1.20;99.90;;;;;;5046898;28;20032;-66
2023/01/18 02:34:31;;;;;;;15.02;7.85;;;-1.20;99.90;;;;;;5063550;28;20040;-64
2023/01/18 02:37:04;;;;;;;15.35;7.75;;;-1.20;99.90;;;;;;5045207;28;20554;-65
2023/01/18 02:40:05;;;;;;;16.35;8.60;;;-1.20;99.90;;;;;;5079996;28;20107;-64
2023/01/18 02:48:39;;;;;;;16.73;8.68;;;-1.20;99.90;;;;;;5065821;28;20048;-65
2023/01/18 02:51:06;;;;;;;18.65;8.40;;;-1.20;99.90;;;;;;5032993;28;20044;-66
2023/01/18 02:53:36;;;;;;;14.65;8.32;;;-1.20;99.90;;;;;;5030138;28;20052;-67
2023/01/18 02:56:12;;;;;;;18.75;8.57;;;-1.20;99.90;;;;;;5060678;28;20051;-66
2023/01/18 02:58:53;;;;;;;14.48;8.25;;;-1.20;99.90;;;;;;5049525;28;20129;-68
2023/01/18 03:01:26;;;;;;;17.45;8.65;;;-1.20;99.90;;;;;;5065521;28;20040;-67
2023/01/18 03:04:03;;;;;;;20.10;8.70;;;-1.20;99.90;;;;;;5066813;28;20061;-68
2023/01/18 03:06:29;;;;;;;16.63;9.18;;;-1.20;99.90;;;;;;5068719;28;20040;-64
2023/01/18 03:08:56;;;;;;;19.00;9.02;;;-1.20;99.90;;;;;;5060581;28;20040;-64
2023/01/18 03:11:46;;;;;;;21.00;9.43;;;-1.20;99.90;;;;;;5085401;28;20152;-68
2023/01/18 03:14:26;;;;;;;15.73;9.10;;;-1.20;99.90;;;;;;5068167;28;20083;-65
2023/01/18 03:17:27;;;;;;;17.20;9.43;;;-1.20;99.90;;;;;;5051164;28;20086;-67
2023/01/18 03:20:07;;;;;;;18.50;9.10;;;-1.20;99.90;;;;;;5051980;28;20131;-65
2023/01/18 03:25:47;;;;;;;16.90;9.63;;;-1.20;99.90;;;;;;5059287;28;20100;-65
2023/01/18 03:34:25;;;;;;;18.52;8.77;;;-1.20;99.90;;;;;;5048523;28;20581;-65
2023/01/18 03:36:54;;;;;;;15.00;8.50;;;-1.30;99.90;;;;;;5048329;28;20399;-65
2023/01/18 03:39:30;;;;;;;16.75;8.73;;;-1.30;99.90;;;;;;5050078;28;20040;-66
2023/01/18 03:42:05;;;;;;;16.33;8.57;;;-1.30;99.90;;;;;;5048516;28;20145;-67
2023/01/18 03:44:40;;;;;;;17.05;9.18;;;-1.30;99.90;;;;;;5048266;28;20524;-66
2023/01/18 03:47:07;;;;;;;15.10;9.05;;;-1.30;99.90;;;;;;5048566;28;20048;-67
2023/01/18 03:49:33;;;;;;;16.67;8.93;;;-1.30;99.90;;;;;;5044953;28;20067;-65
2023/01/18 03:52:36;;;;;;;20.02;9.57;;;-1.30;99.90;;;;;;5086293;28;20035;-65
2023/01/18 03:55:10;;;;;;;19.65;9.35;;;-1.30;99.90;;;;;;5058551;28;20059;-68
2023/01/18 03:57:45;;;;;;;15.68;8.95;;;-1.30;99.90;;;;;;5050556;28;20047;-65
2023/01/18 04:00:13;;;;;;;18.15;9.85;;;-1.30;99.90;;;;;;5068165;28;20046;-66
2023/01/18 04:02:47;;;;;;;17.25;9.27;;;-1.30;99.90;;;;;;5067376;28;20358;-67
2023/01/18 04:05:19;;;;;;;18.23;9.30;;;-1.30;99.90;;;;;;5065860;28;20047;-65
2023/01/18 04:07:45;;;;;;;14.95;9.32;;;-1.30;99.90;;;;;;5067829;28;20514;-66
2023/01/18 04:10:11;;;;;;;17.25;9.40;;;-1.30;99.90;;;;;;5049361;28;20039;-65
2023/01/18 04:12:36;;;;;;;16.02;9.20;;;-1.30;99.90;;;;;;5046985;28;20152;-66
2023/01/18 04:15:09;;;;;;;21.52;9.50;;;-1.40;99.90;;;;;;5048595;28;20119;-67
2023/01/18 04:17:34;;;;;;;17.33;9.15;;;-1.40;99.90;;;;;;5046781;28;20037;-65
2023/01/18 04:20:00;;;;;;;21.02;10.77;;;-1.40;99.90;;;;;;5064323;28;20360;-65
2023/01/18 04:22:25;;;;;;;21.40;10.85;;;-1.40;99.90;;;;;;5064620;28;20037;-67
2023/01/18 04:24:51;;;;;;;19.30;10.13;;;-1.40;99.90;;;;;;5056934;28;20051;-65
2023/01/18 04:27:17;;;;;;;27.75;10.30;;;-1.40;99.90;;;;;;5047493;28;20052;-65
2023/01/18 04:29:43;;;;;;;20.63;10.32;;;-1.40;99.90;;;;;;5065754;28;20523;-67
2023/01/18 04:32:08;;;;;;;20.23;9.90;;;-1.40;99.90;;;;;;5038972;28;20036;-67
2023/01/18 04:34:34;;;;;;;19.33;10.15;;;-1.40;99.90;;;;;;5047597;28;20499;-64
2023/01/18 04:36:59;;;;;;;22.27;10.80;;;-1.40;99.90;;;;;;5065418;28;20116;-66
2023/01/18 04:39:25;;;;;;;17.92;10.32;;;-1.40;99.90;;;;;;5065816;28;20043;-65
2023/01/18 04:41:51;;;;;;;19.60;10.30;;;-1.40;99.90;;;;;;5067178;28;20474;-66
2023/01/18 04:44:16;;;;;;;19.88;10.50;;;-1.40;99.90;;;;;;5067814;28;20116;-65
2023/01/18 04:46:42;;;;;;;20.00;10.35;;;-1.40;99.90;;;;;;5067649;28;20606;-66
2023/01/18 04:49:14;;;;;;;19.70;11.10;;;-1.40;99.90;;;;;;5061422;28;20122;-69
2023/01/18 04:51:44;;;;;;;21.77;11.13;;;-1.50;99.90;;;;;;5064273;28;20047;-66
2023/01/18 04:54:10;;;;;;;21.02;10.85;;;-1.50;99.90;;;;;;5035249;28;20056;-65
2023/01/18 04:56:36;;;;;;;20.30;10.85;;;-1.50;99.90;;;;;;5030418;28;20123;-66
2023/01/18 04:59:05;;;;;;;22.30;11.38;;;-1.50;99.90;;;;;;5047174;28;20131;-66
2023/01/18 05:01:31;;;;;;;22.80;11.52;;;-1.50;99.90;;;;;;5052232;28;20306;-68
2023/01/18 05:03:56;;;;;;;21.05;11.05;;;-1.50;99.90;;;;;;5066923;28;20040;-66
2023/01/18 05:06:23;;;;;;;24.95;10.07;;;-1.40;99.90;;;;;;5067038;28;20098;-67
2023/01/18 05:08:49;;;;;;;21.08;11.27;;;-1.50;99.90;;;;;;5066745;28;20050;-67
2023/01/18 05:11:17;;;;;;;20.73;12.30;;;-1.40;99.90;;;;;;5066561;28;20097;-67
2023/01/18 05:13:44;;;;;;;20.17;11.55;;;-1.40;99.90;;;;;;5066268;28;20082;-66
2023/01/18 05:16:15;;;;;;;21.88;10.18;;;-1.40;99.90;;;;;;5066536;28;20036;-70
2023/01/18 05:18:41;;;;;;;21.60;11.43;;;-1.40;99.90;;;;;;5067271;28;20044;-67
2023/01/18 05:21:07;;;;;;;22.20;10.70;;;-1.40;99.90;;;;;;5050771;28;20048;-66
2023/01/18 05:23:33;;;;;;;24.38;11.65;;;-1.40;99.90;;;;;;5050389;28;20043;-66
2023/01/18 05:25:59;;;;;;;23.92;11.07;;;-1.40;99.90;;;;;;5066233;28;20039;-66
2023/01/18 05:28:26;;;;;;;19.65;11.35;;;-1.40;99.90;;;;;;5066889;28;20091;-66
2023/01/18 05:30:53;;;;;;;22.20;11.38;;;-1.50;99.90;;;;;;5067277;28;20054;-66
2023/01/18 05:33:20;;;;;;;20.67;11.07;;;-1.50;99.90;;;;;;5065703;28;20040;-67
2023/01/18 05:35:50;;;;;;;20.13;11.55;;;-1.50;99.90;;;;;;5066355;28;20789;-67
2023/01/18 05:38:16;;;;;;;20.92;11.32;;;-1.50;99.90;;;;;;5049283;28;20100;-65
2023/01/18 05:40:43;;;;;;;22.15;10.85;;;-1.50;99.90;;;;;;5063555;28;20048;-69
2023/01/18 05:43:22;;;;;;;20.35;10.65;;;-1.60;99.90;;;;;;5063253;28;20036;-67
2023/01/18 05:45:51;;;;;;;23.67;11.73;;;-1.60;99.90;;;;;;5048045;28;20059;-65
2023/01/18 05:48:17;;;;;;;18.83;10.95;;;-1.60;99.90;;;;;;5064042;28;20044;-65
2023/01/18 05:50:44;;;;;;;22.98;11.30;;;-1.60;99.90;;;;;;5047187;28;20490;-67
2023/01/18 05:53:15;;;;;;;22.30;11.80;;;-1.60;99.90;;;;;;5064978;28;20067;-66
2023/01/18 05:55:59;;;;;;;21.15;11.68;;;-1.60;99.90;;;;;;5064827;28;20082;-67
2023/01/18 05:58:26;;;;;;;20.30;11.40;;;-1.60;99.90;;;;;;5060321;28;20063;-67
2023/01/18 06:00:51;;;;;;;22.67;11.63;;;-1.60;99.90;;;;;;5065875;28;20036;-66
2023/01/18 06:03:17;;;;;;;19.92;11.68;;;-1.60;99.90;;;;;;5083712;28;20335;-66
2023/01/18 06:05:43;;;;;;;25.25;11.68;;;-1.60;99.90;;;;;;5050037;28;20678;-66
2023/01/18 06:08:08;;;;;;;19.63;11.70;;;-1.60;99.90;;;;;;5066157;28;20044;-68
2023/01/18 06:10:34;;;;;;;24.27;11.57;;;-1.60;99.90;;;;;;5045143;28;20052;-67
2023/01/18 06:12:59;;;;;;;19.13;10.60;;;-1.60;99.90;;;;;;5046358;28;20059;-67
2023/01/18 06:15:25;;;;;;;22.27;11.20;;;-1.50;99.90;;;;;;5077927;28;20090;-65
2023/01/18 06:17:50;;;;;;;21.05;11.65;;;-1.50;99.90;;;;;;5049704;28;20032;-65
2023/01/18 06:20:16;;;;;;;19.05;11.40;;;-1.50;99.90;;;;;;5085220;28;20044;-66
2023/01/18 06:22:44;;;;;;;18.80;11.38;;;-1.50;99.90;;;;;;5054563;28;20048;-66
2023/01/18 06:25:10;;;;;;;20.67;11.32;;;-1.50;99.90;;;;;;5046555;28;20067;-66
2023/01/18 06:27:37;;;;;;;19.58;10.18;;;-1.50;99.90;;;;;;5063545;28;20048;-66
2023/01/18 06:30:09;;;;;;;23.98;12.00;;;-1.40;99.90;;;;;;5030554;28;20106;-66
2023/01/18 06:32:35;;;;;;;21.80;10.80;;;-1.40;99.90;;;;;;5059911;28;20043;-65
2023/01/18 06:35:07;;;;;;;19.48;10.98;;;-1.40;99.90;;;;;;5046820;28;20040;-67
2023/01/18 06:37:32;;;;;;;19.67;10.50;;;-1.30;99.90;;;;;;5047371;28;20261;-67
2023/01/18 06:39:58;;;;;;;21.63;10.23;;;-1.30;99.90;;;;;;5065032;28;20127;-65
2023/01/18 06:42:24;;;;;;;19.42;10.00;;;-1.30;99.90;;;;;;5070046;28;20043;-67
2023/01/18 06:44:49;;;;;;;21.75;10.15;;;-1.30;99.90;;;;;;5053679;28;20119;-66
2023/01/18 06:47:18;;;;;;;20.70;10.27;;;-1.30;99.90;;;;;;5068874;28;20040;-67
2023/01/18 06:49:46;;;;;;;20.67;10.20;;;-1.30;99.90;;;;;;5070440;28;20044;-69
2023/01/18 06:52:12;;;;;;;18.75;10.07;;;-1.30;99.90;;;;;;5062050;28;20521;-66
2023/01/18 06:54:38;;;;;;;19.63;10.45;;;-1.30;99.90;;;;;;5050360;28;20092;-65
2023/01/18 06:57:03;;;;;;;21.40;9.90;;;-1.30;99.90;;;;;;5050633;28;20250;-67
2023/01/18 06:59:29;;;;;;;17.92;9.60;;;-1.30;99.90;;;;;;5084570;28;20060;-67
2023/01/18 07:01:54;;;;;;;17.77;9.20;;;-1.20;99.90;;;;;;5039651;28;20032;-67
2023/01/18 07:04:20;;;;;;;19.42;8.80;;;-1.20;99.90;;;;;;5065864;28;20044;-68
2023/01/18 07:06:46;;;;;;;16.00;7.45;;;-1.10;99.90;;;;;;5071828;28;20036;-65
2023/01/18 07:09:12;;;;;;;18.75;9.35;;;-1.10;99.90;;;;;;5069995;28;20101;-66
2023/01/18 07:11:42;;;;;;;16.20;8.40;;;-1.00;99.90;;;;;;5070785;28;20481;-65
2023/01/18 07:14:11;;;;;;;17.17;8.40;;;-1.00;99.90;;;;;;5069186;28;20047;-66
2023/01/18 07:16:37;;;;;;;18.90;8.93;;;-1.00;99.90;;;;;;5070232;28;20093;-65
2023/01/18 07:19:03;;;;;;;27.50;9.20;;;-1.00;99.90;;;;;;5062010;28;20052;-66
2023/01/18 07:21:29;;;;;;;18.17;8.35;;;-0.90;99.90;;;;;;5064824;28;20486;-66
2023/01/18 07:23:57;;;;;;;16.00;8.50;;;-0.90;99.90;;;;;;5053071;28;20089;-65
2023/01/18 07:26:23;;;;;;;20.63;8.70;;;-0.90;99.90;;;;;;5067248;28;20074;-66
2023/01/18 07:28:49;;;;;;;21.05;8.93;;;-0.90;99.90;;;;;;5066593;28;20040;-65
2023/01/18 07:31:20;;;;;;;17.55;8.40;;;-0.90;99.90;;;;;;5067418;28;20052;-67
2023/01/18 07:33:45;;;;;;;21.90;8.88;;;-0.90;99.90;;;;;;5048786;28;20040;-65
2023/01/18 07:36:11;;;;;;;19.52;8.30;;;-0.90;99.90;;;;;;5066953;28;20039;-65
2023/01/18 07:38:43;;;;;;;15.90;7.82;;;-1.00;99.90;;;;;;5066986;28;20873;-66
2023/01/18 07:41:15;;;;;;;17.10;7.55;;;-1.00;99.90;;;;;;5085066;28;20040;-65
2023/01/18 07:43:43;;;;;;;15.98;8.00;;;-0.90;99.90;;;;;;5085373;28;20040;-66
2023/01/18 07:46:19;;;;;;;19.95;7.68;;;-0.90;99.90;;;;;;5081443;28;20040;-66
2023/01/18 07:48:46;;;;;;;15.52;7.75;;;-0.90;99.90;;;;;;5030894;28;20135;-65
2023/01/18 07:51:12;;;;;;;15.23;7.60;;;-0.80;99.90;;;;;;5046601;28;20303;-67
2023/01/18 07:53:38;;;;;;;16.08;7.18;;;-0.80;99.90;;;;;;5066567;28;20056;-64
2023/01/18 07:56:16;;;;;;;17.45;8.10;;;-0.80;99.90;;;;;;5084361;28;20104;-67
2023/01/18 07:58:44;;;;;;;15.18;7.47;;;-0.90;99.90;;;;;;5085249;28;20483;-66
2023/01/18 08:01:16;;;;;;;17.48;7.93;;;-0.90;99.90;;;;;;5066673;28;20039;-66
2023/01/18 08:03:43;;;;;;;20.50;8.68;;;-0.90;99.90;;;;;;5084965;28;20092;-66
2023/01/18 08:06:09;;;;;;;14.32;6.75;;;-0.90;99.90;;;;;;5084561;28;20089;-65
2023/01/18 08:08:35;;;;;;;15.13;7.15;;;-0.90;99.90;;;;;;5063694;28;20707;-65
2023/01/18 08:11:06;;;;;;;15.93;6.97;;;-0.90;99.90;;;;;;5064389;28;20036;-65
2023/01/18 08:13:35;;;;;;;14.85;6.80;;;-0.80;99.90;;;;;;5062789;28;20047;-67
2023/01/18 08:16:03;;;;;;;22.38;7.25;;;-0.80;99.90;;;;;;5074101;28;20570;-65
2023/01/18 08:18:29;;;;;;;17.83;7.35;;;-0.80;99.90;;;;;;5060064;28;20043;-65
2023/01/18 08:20:55;;;;;;;15.63;7.03;;;-0.70;99.90;;;;;;5084475;28;20043;-66
2023/01/18 08:23:21;;;;;;;15.38;7.07;;;-0.70;99.90;;;;;;5083846;28;20044;-65
2023/01/18 08:25:47;;;;;;;18.27;6.90;;;-0.70;99.90;;;;;;5063809;28;20499;-65
2023/01/18 08:28:13;;;;;;;15.23;7.05;;;-0.70;99.90;;;;;;5045999;28;20067;-64
2023/01/18 08:30:45;;;;;;;13.75;6.57;;;-0.70;99.90;;;;;;5064557;28;20093;-65
2023/01/18 08:33:10;;;;;;;15.00;7.25;;;-0.60;99.90;;;;;;5048318;28;20036;-65
2023/01/18 08:35:45;;;;;;;17.75;8.07;;;-0.70;99.90;;;;;;5065578;28;20420;-65
2023/01/18 08:38:12;;;;;;;14.93;6.80;;;-0.70;99.90;;;;;;5066745;28;20119;-67
2023/01/18 08:40:39;;;;;;;16.05;8.07;;;-0.60;99.90;;;;;;5063186;28;20675;-66
2023/01/18 08:43:05;;;;;;;13.85;7.72;;;-0.60;99.90;;;;;;5071072;28;20039;-67
2023/01/18 08:45:31;;;;;;;15.95;8.25;;;-0.60;99.90;;;;;;5055938;28;20357;-66
2023/01/18 08:48:06;;;;;;;16.80;8.77;;;-0.60;99.90;;;;;;5064721;28;20044;-65
2023/01/18 08:50:33;;;;;;;16.80;8.07;;;-0.50;99.90;;;;;;5065389;28;20105;-65
2023/01/18 08:52:59;;;;;;;20.38;8.48;;;-0.50;99.90;;;;;;5065172;28;20070;-65
2023/01/18 08:55:27;;;;;;;15.55;8.00;;;-0.40;99.90;;;;;;5063958;28;20056;-65
2023/01/18 08:57:53;;;;;;;16.42;8.05;;;-0.40;99.90;;;;;;5066002;28;20028;-65
2023/01/18 09:00:28;;;;;;;17.30;8.40;;;-0.40;99.90;;;;;;5084088;28;20040;-67
2023/01/18 09:02:54;;;;;;;17.58;8.15;;;-0.30;99.90;;;;;;5047714;28;20090;-64
2023/01/18 09:05:20;;;;;;;14.63;7.35;;;-0.30;99.90;;;;;;5062889;28;20044;-65
2023/01/18 09:07:46;;;;;;;13.93;7.43;;;-0.20;99.90;;;;;;5044009;28;20040;-64
2023/01/18 09:10:12;;;;;;;19.60;8.45;;;-0.20;99.90;;;;;;5063489;28;20071;-64
2023/01/18 09:12:38;;;;;;;18.88;8.32;;;-0.10;99.90;;;;;;5045266;28;20044;-67
2023/01/18 09:15:05;;;;;;;16.70;7.78;;;-0.10;99.90;;;;;;5063357;28;20036;-66
2023/01/18 09:17:30;;;;;;;15.10;7.80;;;0.00;99.90;;;;;;5059189;28;20036;-66
2023/01/18 09:19:56;;;;;;;17.15;9.27;;;0.00;99.90;;;;;;5065509;28;20043;-64
2023/01/18 09:22:23;;;;;;;17.08;7.95;;;0.10;99.90;;;;;;5065159;28;20088;-65
2023/01/18 09:24:49;;;;;;;14.68;8.13;;;0.10;99.90;;;;;;5064483;28;20423;-66
2023/01/18 09:27:15;;;;;;;17.48;8.48;;;0.20;99.90;;;;;;5065143;28;20535;-65
2023/01/18 09:29:41;;;;;;;13.20;7.68;;;0.20;99.90;;;;;;5077282;28;20098;-66
2023/01/18 09:32:09;;;;;;;14.45;7.85;;;0.20;99.90;;;;;;5053728;28;20093;-65
2023/01/18 09:34:35;;;;;;;19.40;8.85;;;0.30;99.90;;;;;;5064682;28;20040;-64
2023/01/18 09:37:01;;;;;;;20.02;8.52;;;0.30;99.90;;;;;;5064423;28;20596;-65
2023/01/18 09:39:27;;;;;;;16.15;8.05;;;0.40;99.90;;;;;;5054390;28;20044;-64
2023/01/18 09:42:00;;;;;;;17.13;8.57;;;0.40;99.90;;;;;;5062865;28;20040;-65
2023/01/18 09:44:33;;;;;;;16.27;8.27;;;0.40;99.90;;;;;;5063964;28;20457;-65
2023/01/18 09:47:01;;;;;;;18.27;9.10;;;0.50;99.90;;;;;;5053222;28;20079;-64
2023/01/18 09:49:53;;;;;;;16.55;8.52;;;0.50;99.90;;;;;;5061884;28;20040;-65
2023/01/18 09:52:31;;;;;;;17.40;8.60;;;0.60;99.90;;;;;;5044916;28;20079;-65
2023/01/18 09:55:32;;;;;;;16.40;9.00;;;0.60;99.90;;;;;;5076106;28;20055;-66
2023/01/18 09:58:12;;;;;;;16.40;8.80;;;0.70;99.90;;;;;;5082317;28;20048;-65
2023/01/18 10:00:45;;;;;;;17.42;8.35;;;0.80;99.90;;;;;;5064651;28;20036;-65
2023/01/18 10:03:18;;;;;;;20.42;8.38;;;0.90;99.90;;;;;;5056498;28;20083;-64
2023/01/18 10:06:07;;;;;;;16.45;8.48;;;1.00;99.90;;;;;;5064500;28;20404;-68
2023/01/18 10:08:48;;;;;;;16.80;8.80;;;1.10;99.90;;;;;;5063498;28;20039;-65
2023/01/18 10:11:34;;;;;;;18.58;8.40;;;1.10;99.90;;;;;;5061698;28;20116;-66
2023/01/18 10:14:44;;;;;;;15.25;7.88;;;1.10;99.90;;;;;;5047851;28;20045;-66
2023/01/18 10:17:22;;;;;;;18.50;9.02;;;1.20;99.90;;;;;;5053902;28;20047;-65
2023/01/18 10:19:49;;;;;;;15.48;7.50;;;1.40;99.90;;;;;;5086185;28;20036;-68
2023/01/18 10:22:30;;;;;;;22.08;8.65;;;1.50;99.90;;;;;;5068094;28;20047;-63
2023/01/18 10:25:04;;;;;;;22.50;8.57;;;1.60;99.90;;;;;;5063950;28;20603;-67
2023/01/18 10:27:38;;;;;;;14.32;7.18;;;1.70;99.90;;;;;;5048633;28;20048;-65
2023/01/18 10:30:13;;;;;;;17.77;7.82;;;1.90;99.90;;;;;;5049823;28;20040;-66
2023/01/18 10:32:49;;;;;;;13.20;6.95;;;2.20;99.90;;;;;;5079488;28;20052;-65
2023/01/18 10:35:38;;;;;;;16.30;7.75;;;2.40;99.90;;;;;;5068260;28;20056;-65
2023/01/18 10:38:11;;;;;;;15.15;7.13;;;2.60;99.90;;;;;;5068071;28;20243;-62
2023/01/18 10:40:38;;;;;;;14.73;7.97;;;2.60;99.90;;;;;;5067581;28;20129;-64
2023/01/18 10:43:09;;;;;;;17.60;7.88;;;2.50;99.90;;;;;;5086953;28;20079;-66
2023/01/18 10:45:35;;;;;;;13.48;7.50;;;2.60;99.90;;;;;;5066584;28;20066;-67
2023/01/18 10:48:12;;;;;;;15.90;7.85;;;2.60;99.90;;;;;;5057340;28;20036;-64
2023/01/18 10:50:48;;;;;;;15.82;7.28;;;2.60;99.90;;;;;;5048439;28;20045;-64
2023/01/18 10:53:23;;;;;;;13.95;7.32;;;2.70;99.90;;;;;;5066212;28;20056;-64
2023/01/18 10:56:11;;;;;;;17.60;7.90;;;2.80;99.90;;;;;;5063627;28;20121;-65
2023/01/18 10:58:43;;;;;;;12.55;6.85;;;3.20;99.90;;;;;;5048239;28;20052;-64
2023/01/18 11:01:26;;;;;;;12.32;7.03;;;3.40;99.90;;;;;;5066226;28;20036;-69
2023/01/18 11:04:05;;;;;;;14.03;7.03;;;3.70;99.90;;;;;;5079807;28;20755;-65
2023/01/18 11:07:09;;;;;;;15.35;7.53;;;3.90;99.90;;;;;;5067299;28;20124;-64
2023/01/18 11:09:50;;;;;;;15.48;7.47;;;3.90;99.90;;;;;;4975071;28;20310;-65
2023/01/18 11:12:33;;;;;;;12.82;6.53;;;4.10;99.90;;;;;;4967474;28;20180;-64
2023/01/18 11:15:14;;;;;;;11.10;6.38;;;4.20;99.90;;;;;;5010628;28;20581;-63
2023/01/18 11:17:53;;;;;;;13.35;6.20;;;4.30;99.90;;;;;;5062967;28;20604;-67
2023/01/18 11:20:46;;;;;;;13.07;6.30;;;4.40;99.90;;;;;;5050896;28;20039;-67
2023/01/18 11:23:36;;;;;;;12.80;6.28;;;4.50;99.90;;;;;;5067842;28;20558;-64
2023/01/18 11:26:18;;;;;;;12.23;6.40;;;4.70;99.90;;;;;;5045996;28;20044;-68
2023/01/18 11:28:52;;;;;;;16.20;6.43;;;4.80;99.90;;;;;;5046864;28;20055;-64
2023/01/18 11:31:24;;;;;;;;;;;4.90;99.90;;;;;;5051582;28;20082;-65
2023/01/18 11:34:01;;;;;;;12.27;5.68;;;5.00;98.90;;;;;;5083351;28;20461;-65
2023/01/18 11:36:39;;;;;;;10.68;5.85;;;5.10;99.90;;;;;;5066325;28;20133;-65
2023/01/18 11:39:34;;;;;;;9.77;5.53;;;5.30;99.90;;;;;;5077491;28;20041;-63
2023/01/18 11:42:38;;;;;;;16.45;6.22;;;5.30;99.00;;;;;;5064852;28;20040;-65
2023/01/18 11:45:31;;;;;;;10.65;5.50;;;5.20;99.40;;;;;;5058861;28;20052;-67
2023/01/18 11:48:16;;;;;;;10.30;5.60;;;5.20;99.90;;;;;;5085013;28;20032;-64
2023/01/18 11:50:42;;;;;;;;;;;5.20;99.90;;;;;;5066683;28;20503;-66
2023/01/18 11:54:07;;;;;;;10.32;4.93;;;5.10;98.90;;;;;;5084895;28;20015;-63
2023/01/18 11:56:48;;;;;;;14.93;5.28;;;5.10;99.90;;;;;;5001737;28;20053;-65
2023/01/18 11:59:22;;;;;;;11.23;5.28;;;5.00;99.90;;;;;;4985987;28;20516;-66
2023/01/18 12:02:13;;;;;;;11.40;5.40;;;4.90;99.90;;;;;;5024409;28;20053;-63
2023/01/18 12:05:04;;;;;;;14.20;5.45;;;4.90;99.90;;;;;;5064640;28;20044;-64
2023/01/18 12:07:39;;;;;;;13.25;5.43;;;4.70;99.90;;;;;;5028173;28;20052;-65
2023/01/18 12:10:14;;;;;;;13.27;5.03;;;4.80;99.90;;;;;;5064221;28;20063;-64
2023/01/18 12:12:51;;;;;;;;;;;4.80;99.90;;;;;;5065136;28;20040;-65
2023/01/18 12:15:45;;;;;;;11.90;4.93;;;4.70;99.60;;;;;;5064379;28;20058;-63
2023/01/18 12:18:23;;;;;;;11.45;4.85;;;4.80;99.90;;;;;;5064399;28;20076;-64
2023/01/18 12:21:23;;;;;;;12.07;4.97;;;4.80;99.90;;;;;;5066540;28;20054;-63
2023/01/18 12:24:19;;;;;;;12.82;5.13;;;4.70;99.90;;;;;;5065141;28;20043;-64
2023/01/18 12:27:03;;;;;;;10.70;5.25;;;4.50;99.90;;;;;;5066027;28;20627;-64
2023/01/18 12:29:50;;;;;;;10.10;4.72;;;4.40;99.90;;;;;;5084463;28;20044;-66
2023/01/18 12:32:29;;;;;;;27.60;5.35;;;4.30;99.90;;;;;;5064089;28;20044;-65
2023/01/18 12:35:23;;;;;;;10.90;4.97;;;4.30;99.90;;;;;;5045523;28;20045;-64
2023/01/18 12:38:01;;;;;;;10.07;4.88;;;4.20;99.90;;;;;;5064661;28;20495;-63
2023/01/18 12:40:47;;;;;;;9.82;4.35;;;4.20;99.90;;;;;;5046155;28;20055;-68
2023/01/18 12:43:32;;;;;;;12.80;5.07;;;4.30;99.90;;;;;;5046388;28;20079;-66
2023/01/18 12:46:09;;;;;;;10.60;4.32;;;4.40;99.90;;;;;;5083349;28;20044;-64
2023/01/18 12:48:45;;;;;;;12.85;4.15;;;4.40;99.90;;;;;;5059314;28;20060;-65
2023/01/18 12:51:15;;;;;;;13.65;4.60;;;4.50;99.90;;;;;;5065832;28;20044;-63
2023/01/18 12:53:57;;;;;;;11.52;4.45;;;4.60;99.90;;;;;;5083399;28;20064;-66
2023/01/18 12:56:28;;;;;;;9.65;4.10;;;4.60;99.90;;;;;;5064704;28;20491;-68
2023/01/18 12:58:59;;;;;;;10.10;4.07;;;4.70;99.90;;;;;;5052092;28;20524;-64
2023/01/18 13:01:30;;;;;;;9.85;4.40;;;4.60;99.50;;;;;;5068741;28;20044;-64
2023/01/18 13:04:10;;;;;;;13.02;4.72;;;4.60;99.90;;;;;;5083659;28;20044;-65
2023/01/18 13:06:38;;;;;;;8.32;4.40;;;4.60;99.90;;;;;;5064932;28;20044;-66
2023/01/18 13:09:10;;;;;;;10.23;4.55;;;4.60;99.90;;;;;;5064654;28;20101;-63
2023/01/18 13:11:40;;;;;;;11.98;4.38;;;4.60;99.90;;;;;;5083118;28;20044;-66
2023/01/18 13:14:47;;;;;;;13.43;4.80;;;4.60;99.90;;;;;;5083516;28;20044;-65
2023/01/18 13:17:24;;;;;;;11.60;4.53;;;4.70;99.90;;;;;;4999278;28;20045;-65
2023/01/18 13:19:57;;;;;;;11.25;4.78;;;4.60;99.90;;;;;;5001386;28;20704;-64
2023/01/18 13:22:30;;;;;;;10.45;4.82;;;4.60;99.90;;;;;;5033461;28;20055;-62
2023/01/18 13:25:18;;;;;;;9.82;4.35;;;4.60;99.90;;;;;;5069191;28;20037;-64
2023/01/18 13:28:02;;;;;;;10.10;4.85;;;4.50;99.90;;;;;;5044754;28;20067;-62
2023/01/18 13:30:44;;;;;;;9.75;5.03;;;4.40;99.90;;;;;;5045187;28;20125;-64
2023/01/18 13:33:15;;;;;;;11.57;4.60;;;4.20;99.90;;;;;;5060038;28;20526;-66
2023/01/18 13:35:52;;;;;;;11.02;5.00;;;4.00;99.90;;;;;;5083324;28;20096;-68
2023/01/18 13:38:21;;;;;;;13.32;4.88;;;3.90;99.90;;;;;;5046531;28;20128;-64
2023/01/18 13:41:02;;;;;;;11.85;4.95;;;3.80;99.90;;;;;;5082942;28;20048;-66